createdAt,value
2018-09-11T00:00:31.297Z,7.08
2018-09-11T00:03:00.107Z,8.00
2018-09-11T00:05:28.956Z,6.60
2018-09-11T00:07:57.641Z,7.40
2018-09-11T00:10:26.456Z,7.53
2018-09-11T00:12:55.184Z,7.17
2018-09-11T00:15:24.221Z,7.47
2018-09-11T00:17:52.886Z,7.63
2018-09-11T00:20:21.551Z,7.30
2018-09-11T00:22:50.364Z,8.68
2018-09-11T00:25:19.071Z,9.40
2018-09-11T00:27:47.689Z,9.40
2018-09-11T00:30:16.340Z,9.70
2018-09-11T00:32:44.975Z,9.60
2018-09-11T00:35:13.657Z,8.67
2018-09-11T00:37:42.340Z,9.47
2018-09-11T00:40:11.020Z,8.33
2018-09-11T00:42:39.676Z,9.40
2018-09-11T00:45:08.411Z,8.77
2018-09-11T00:47:37.056Z,7.10
2018-09-11T00:50:05.997Z,6.87
2018-09-11T00:52:34.659Z,6.57
2018-09-11T00:55:03.416Z,5.90
2018-09-11T00:57:32.089Z,5.43
2018-09-11T01:00:00.689Z,4.83
2018-09-11T01:02:29.412Z,5.47
2018-09-11T01:04:58.056Z,4.70
2018-09-11T01:07:26.806Z,4.87
2018-09-11T01:09:55.525Z,4.70
2018-09-11T01:12:24.122Z,4.70
2018-09-11T01:14:52.926Z,4.83
2018-09-11T01:17:21.540Z,4.97
2018-09-11T01:19:50.280Z,4.70
2018-09-11T01:22:18.926Z,5.33
2018-09-11T01:24:47.580Z,4.67
2018-09-11T01:27:16.210Z,5.00
2018-09-11T01:29:44.919Z,5.57
2018-09-11T01:32:13.626Z,5.23
2018-09-11T01:34:42.256Z,4.97
2018-09-11T01:37:11.004Z,4.07
2018-09-11T01:39:39.669Z,5.00
2018-09-11T01:42:08.364Z,4.10
2018-09-11T01:44:37.001Z,3.80
2018-09-11T01:47:05.794Z,3.58
2018-09-11T01:49:34.471Z,3.60
2018-09-11T01:52:03.210Z,3.50
2018-09-11T01:54:31.840Z,3.37
2018-09-11T01:57:00.443Z,2.80
2018-09-11T01:59:29.060Z,3.13
2018-09-11T02:01:57.729Z,3.17
2018-09-11T02:04:26.394Z,3.00
2018-09-11T02:06:55.136Z,3.00
2018-09-11T02:09:23.744Z,3.40
2018-09-11T02:11:52.425Z,3.33
2018-09-11T02:14:21.084Z,2.97
2018-09-11T02:16:49.785Z,2.73
2018-09-11T02:19:18.729Z,3.23
2018-09-11T02:21:47.627Z,3.33
2018-09-11T02:24:16.246Z,3.60
2018-09-11T02:26:44.926Z,3.22
2018-09-11T02:29:13.547Z,3.70
2018-09-11T02:31:42.174Z,3.30
2018-09-11T02:34:10.883Z,3.50
2018-09-11T02:36:39.539Z,4.13
2018-09-11T02:39:10.140Z,3.80
2018-09-11T02:41:38.895Z,3.80
2018-09-11T02:44:08.075Z,3.50
2018-09-11T02:46:36.674Z,3.73
2018-09-11T02:49:05.400Z,3.70
2018-09-11T02:51:34.830Z,4.10
2018-09-11T02:54:03.709Z,4.00
2018-09-11T02:56:32.645Z,3.33
2018-09-11T02:59:01.421Z,3.70
2018-09-11T03:01:30.080Z,3.23
2018-09-11T03:03:58.717Z,3.27
2018-09-11T03:06:27.414Z,2.97
2018-09-11T03:08:56.061Z,2.95
2018-09-11T03:11:24.720Z,2.70
2018-09-11T03:13:53.371Z,2.80
2018-09-11T03:16:22.670Z,2.80
2018-09-11T03:18:51.376Z,2.90
2018-09-11T03:21:19.999Z,3.27
2018-09-11T03:23:48.656Z,3.10
2018-09-11T03:26:17.528Z,2.50
2018-09-11T03:28:46.505Z,3.27
2018-09-11T03:31:15.164Z,3.00
2018-09-11T03:33:44.054Z,2.77
2018-09-11T03:36:13.464Z,3.47
2018-09-11T03:38:42.125Z,2.73
2018-09-11T03:41:10.776Z,3.83
2018-09-11T03:43:40.231Z,3.43
2018-09-11T03:46:09.541Z,3.37
2018-09-11T03:48:38.369Z,3.43
2018-09-11T03:51:07.157Z,3.17
2018-09-11T03:53:36.733Z,2.93
2018-09-11T03:56:05.905Z,4.00
2018-09-11T03:58:35.479Z,4.00
2018-09-11T04:01:04.281Z,4.50
2018-09-11T04:03:33.083Z,5.20
2018-09-11T04:06:01.774Z,5.80
2018-09-11T04:08:30.424Z,5.40
2018-09-11T04:10:59.114Z,5.03
2018-09-11T04:13:27.725Z,4.83
2018-09-11T04:15:56.401Z,5.30
2018-09-11T04:18:25.005Z,5.43
2018-09-11T04:20:53.779Z,5.30
2018-09-11T04:23:22.399Z,5.43
2018-09-11T04:25:51.141Z,4.60
2018-09-11T04:28:19.770Z,4.90
2018-09-11T04:30:48.564Z,4.47
2018-09-11T04:33:17.216Z,4.37
2018-09-11T04:35:46.036Z,5.33
2018-09-11T04:38:14.640Z,4.80
2018-09-11T04:40:43.251Z,4.63
2018-09-11T04:43:11.965Z,4.00
2018-09-11T04:45:40.555Z,4.00
2018-09-11T04:48:09.295Z,4.17
2018-09-11T04:50:37.986Z,4.47
2018-09-11T04:53:06.698Z,3.90
2018-09-11T04:55:35.356Z,4.43
2018-09-11T04:58:04.109Z,3.70
2018-09-11T05:00:32.796Z,3.63
2018-09-11T05:03:01.398Z,3.73
2018-09-11T05:05:30.155Z,3.27
2018-09-11T05:07:58.894Z,3.67
2018-09-11T05:10:27.626Z,3.05
2018-09-11T05:12:56.315Z,3.63
2018-09-11T05:15:25.054Z,3.50
2018-09-11T05:17:53.775Z,3.17
2018-09-11T05:20:22.458Z,3.30
2018-09-11T05:22:51.123Z,2.77
2018-09-11T05:25:19.849Z,3.20
2018-09-11T05:27:48.544Z,3.10
2018-09-11T05:30:17.153Z,3.50
2018-09-11T05:32:45.828Z,2.90
2018-09-11T05:35:14.511Z,3.20
2018-09-11T05:37:43.208Z,3.00
2018-09-11T05:40:11.930Z,2.93
2018-09-11T05:42:40.633Z,2.90
2018-09-11T05:45:09.360Z,2.73
2018-09-11T05:47:38.069Z,2.67
2018-09-11T05:50:06.785Z,2.80
2018-09-11T05:52:35.429Z,3.57
2018-09-11T05:55:05.028Z,3.20
2018-09-11T05:57:33.758Z,2.90
2018-09-11T06:00:02.684Z,3.10
2018-09-11T06:02:31.509Z,2.50
2018-09-11T06:05:00.185Z,2.57
2018-09-11T06:07:28.818Z,3.03
2018-09-11T06:09:57.582Z,2.53
2018-09-11T06:12:26.919Z,3.10
2018-09-11T06:14:55.584Z,3.23
2018-09-11T06:17:24.260Z,2.70
2018-09-11T06:19:52.919Z,2.80
2018-09-11T06:22:21.763Z,2.63
2018-09-11T06:24:50.658Z,2.73
2018-09-11T06:27:20.018Z,2.77
2018-09-11T06:29:49.357Z,2.75
2018-09-11T06:32:18.241Z,2.47
2018-09-11T06:34:46.904Z,2.67
2018-09-11T06:37:15.641Z,2.70
2018-09-11T06:39:44.533Z,2.57
2018-09-11T06:42:14.188Z,2.57
2018-09-11T06:44:43.684Z,2.93
2018-09-11T06:47:12.513Z,3.00
2018-09-11T06:49:41.699Z,3.03
2018-09-11T06:52:10.565Z,3.20
2018-09-11T06:54:39.427Z,4.23
2018-09-11T06:57:08.213Z,3.20
2018-09-11T06:59:37.609Z,2.90
2018-09-11T07:02:06.440Z,3.13
2018-09-11T07:04:35.363Z,2.60
2018-09-11T07:07:04.984Z,2.80
2018-09-11T07:09:34.887Z,3.10
2018-09-11T07:12:03.804Z,2.90
2018-09-11T07:14:33.251Z,2.93
2018-09-11T07:17:02.223Z,3.30
2018-09-11T07:19:31.212Z,2.80
2018-09-11T07:22:00.248Z,3.77
2018-09-11T07:24:29.300Z,3.03
2018-09-11T07:26:58.289Z,2.77
2018-09-11T07:29:27.238Z,2.73
2018-09-11T07:31:55.943Z,3.63
2018-09-11T07:34:24.744Z,4.83
2018-09-11T07:36:53.453Z,4.25
2018-09-11T07:39:22.285Z,3.97
2018-09-11T07:41:51.104Z,4.20
2018-09-11T07:44:20.479Z,4.58
2018-09-11T07:46:49.350Z,4.00
2018-09-11T07:49:18.340Z,3.20
2018-09-11T07:51:47.193Z,5.20
2018-09-11T07:54:15.959Z,3.37
2018-09-11T07:56:44.904Z,3.80
2018-09-11T07:59:13.860Z,3.27
2018-09-11T08:01:43.293Z,3.30
2018-09-11T08:04:12.318Z,4.03
2018-09-11T08:06:41.053Z,4.77
2018-09-11T08:09:12.400Z,4.20
2018-09-11T08:11:41.279Z,3.47
2018-09-11T08:14:11.165Z,3.43
2018-09-11T08:16:40.821Z,3.17
2018-09-11T08:19:09.670Z,2.97
2018-09-11T08:21:38.544Z,4.40
2018-09-11T08:24:07.265Z,3.83
2018-09-11T08:26:36.011Z,3.47
2018-09-11T08:29:05.729Z,2.23
2018-09-11T08:31:34.663Z,2.80
2018-09-11T08:34:03.836Z,2.80
2018-09-11T08:36:33.048Z,2.43
2018-09-11T08:39:01.844Z,2.90
2018-09-11T08:41:30.669Z,2.53
2018-09-11T08:43:59.446Z,2.70
2018-09-11T08:46:28.391Z,2.43
2018-09-11T08:48:57.199Z,2.20
2018-09-11T08:51:26.074Z,3.27
2018-09-11T08:53:54.950Z,3.33
2018-09-11T08:56:41.149Z,2.50
2018-09-11T09:02:33.325Z,3.67
2018-09-11T09:05:02.699Z,2.90
2018-09-11T09:07:31.579Z,2.10
2018-09-11T09:10:00.584Z,3.63
2018-09-11T09:12:29.297Z,3.77
2018-09-11T09:14:58.193Z,2.60
2018-09-11T09:17:26.924Z,3.27
2018-09-11T09:19:55.999Z,3.93
2018-09-11T09:22:24.780Z,3.43
2018-09-11T09:24:53.704Z,3.13
2018-09-11T09:27:22.572Z,2.85
2018-09-11T09:29:51.444Z,2.40
2018-09-11T09:32:20.935Z,2.58
2018-09-11T09:34:49.983Z,3.30
2018-09-11T09:37:18.873Z,3.27
2018-09-11T09:39:47.739Z,3.47
2018-09-11T09:42:16.659Z,3.43
2018-09-11T09:44:45.296Z,3.10
2018-09-11T09:47:14.289Z,2.67
2018-09-11T09:49:43.639Z,2.23
2018-09-11T09:52:12.601Z,3.67
2018-09-11T09:54:41.649Z,3.00
2018-09-11T09:57:11.943Z,2.30
2018-09-11T09:59:41.335Z,2.37
2018-09-11T10:02:15.309Z,2.97
2018-09-11T10:04:44.177Z,3.23
2018-09-11T10:07:12.853Z,2.77
2018-09-11T10:09:41.560Z,2.80
2018-09-11T10:12:11.393Z,2.50
2018-09-11T10:20:07.354Z,2.77
2018-09-11T10:22:36.073Z,2.67
2018-09-11T10:25:05.170Z,2.90
2018-09-11T10:27:34.233Z,2.50
2018-09-11T10:30:03.083Z,2.37
2018-09-11T10:32:32.014Z,3.20
2018-09-11T10:35:00.904Z,3.13
2018-09-11T10:37:30.408Z,3.37
2018-09-11T10:40:00.125Z,2.77
2018-09-11T10:42:29.092Z,2.70
2018-09-11T10:44:57.821Z,2.60
2018-09-11T10:47:26.553Z,2.25
2018-09-11T10:49:56.124Z,2.10
2018-09-11T10:52:25.284Z,2.87
2018-09-11T10:54:54.251Z,3.30
2018-09-11T10:57:23.069Z,2.53
2018-09-11T10:59:51.825Z,2.47
2018-09-11T11:02:20.772Z,2.60
2018-09-11T11:04:49.495Z,2.75
2018-09-11T11:07:18.289Z,2.30
2018-09-11T11:09:47.146Z,2.37
2018-09-11T11:12:16.564Z,3.90
2018-09-11T11:14:45.544Z,2.90
2018-09-11T11:17:14.373Z,2.83
2018-09-11T11:19:43.204Z,3.20
2018-09-11T11:22:12.393Z,3.17
2018-09-11T11:24:41.271Z,2.57
2018-09-11T11:27:10.153Z,3.30
2018-09-11T11:29:39.783Z,2.70
2018-09-11T11:32:08.634Z,2.73
2018-09-11T11:34:37.539Z,3.23
2018-09-11T11:37:07.170Z,3.53
2018-09-11T11:39:35.873Z,3.20
2018-09-11T11:42:05.228Z,3.70
2018-09-11T11:44:33.875Z,3.30
2018-09-11T11:47:02.783Z,2.80
2018-09-11T11:49:31.728Z,2.87
2018-09-11T11:52:00.423Z,3.00
2018-09-11T11:54:29.295Z,2.97
2018-09-11T11:56:58.612Z,2.83
2018-09-11T11:59:27.382Z,2.77
2018-09-11T12:01:56.651Z,2.90
2018-09-11T12:04:25.565Z,2.77
2018-09-11T12:06:55.103Z,2.43
2018-09-11T12:09:23.733Z,2.90
2018-09-11T12:11:52.429Z,3.20
2018-09-11T12:14:21.129Z,3.50
2018-09-11T12:16:49.812Z,2.95
2018-09-11T12:19:18.557Z,3.07
2018-09-11T12:21:47.245Z,4.37
2018-09-11T12:24:15.933Z,3.57
2018-09-11T12:26:44.760Z,5.05
2018-09-11T12:29:13.938Z,3.17
2018-09-11T12:31:43.475Z,3.37
2018-09-11T12:34:12.408Z,3.03
2018-09-11T12:36:41.175Z,3.37
2018-09-11T12:39:10.494Z,2.97
2018-09-11T12:41:40.006Z,3.70
2018-09-11T12:44:09.144Z,3.37
2018-09-11T12:46:38.358Z,3.60
2018-09-11T12:49:07.109Z,3.35
2018-09-11T12:51:36.163Z,4.70
2018-09-11T12:54:05.225Z,3.57
2018-09-11T12:56:34.463Z,3.63
2018-09-11T12:59:03.406Z,3.37
2018-09-11T13:01:32.258Z,3.52
2018-09-11T13:04:01.134Z,2.90
2018-09-11T13:06:30.142Z,2.87
2018-09-11T13:08:59.308Z,2.80
2018-09-11T13:11:28.188Z,3.20
2018-09-11T13:13:57.719Z,3.58
2018-09-11T13:16:26.737Z,3.30
2018-09-11T13:18:55.528Z,3.60
2018-09-11T13:21:24.404Z,3.50
2018-09-11T13:23:53.334Z,2.70
2018-09-11T13:26:22.398Z,3.40
2018-09-11T13:28:51.248Z,3.62
2018-09-11T13:31:20.015Z,3.60
2018-09-11T13:33:49.037Z,2.77
2018-09-11T13:36:17.772Z,3.40
2018-09-11T13:38:46.727Z,5.20
2018-09-11T13:41:15.413Z,2.77
2018-09-11T13:43:44.034Z,2.77
2018-09-11T13:46:13.142Z,3.10
2018-09-11T13:48:42.734Z,3.12
2018-09-11T13:51:12.162Z,3.37
2018-09-11T13:53:41.000Z,3.03
2018-09-11T13:56:10.237Z,3.32
2018-09-11T13:58:39.081Z,3.20
2018-09-11T14:01:09.111Z,3.33
2018-09-11T14:03:38.900Z,3.10
2018-09-11T14:06:07.739Z,3.37
2018-09-11T14:08:36.890Z,3.00
2018-09-11T14:11:05.765Z,2.95
2018-09-11T14:13:34.527Z,3.25
2018-09-11T14:16:03.398Z,3.37
2018-09-11T14:18:33.262Z,3.15
2018-09-11T14:21:02.363Z,3.22
2018-09-11T14:23:31.264Z,2.20
2018-09-11T14:26:00.480Z,2.40
2018-09-11T14:28:29.453Z,3.10
2018-09-11T14:30:58.683Z,2.90
2018-09-11T14:33:27.627Z,2.60
2018-09-11T14:35:57.192Z,2.57
2018-09-11T14:38:26.603Z,2.42
2018-09-11T14:40:55.299Z,2.50
2018-09-11T14:43:24.107Z,2.62
2018-09-11T14:45:53.604Z,2.70
2018-09-11T14:48:22.687Z,2.55
2018-09-11T14:50:52.044Z,2.92
2018-09-11T14:53:20.969Z,2.90
2018-09-11T14:55:49.881Z,3.10
2018-09-11T14:58:18.744Z,2.80
2018-09-11T15:00:47.654Z,2.58
2018-09-11T15:03:16.417Z,2.90
2018-09-11T15:05:45.277Z,2.75
2018-09-11T15:08:14.722Z,2.65
2018-09-11T15:10:43.853Z,2.87
2018-09-11T15:13:12.820Z,2.63
2018-09-11T15:15:42.558Z,2.95
2018-09-11T15:18:11.379Z,2.22
2018-09-11T15:20:40.343Z,2.33
2018-09-11T15:23:09.323Z,2.70
2018-09-11T15:25:38.083Z,2.60
2018-09-11T15:28:07.152Z,2.87
2018-09-11T15:30:35.879Z,2.62
2018-09-11T15:33:04.879Z,3.00
2018-09-11T15:35:33.757Z,2.45
2018-09-11T15:38:02.454Z,2.73
2018-09-11T15:40:31.169Z,2.40
2018-09-11T15:42:59.997Z,2.40
2018-09-11T15:45:29.154Z,2.60
2018-09-11T15:47:57.979Z,2.77
2018-09-11T15:50:27.111Z,2.67
2018-09-11T15:52:56.820Z,2.40
2018-09-11T15:55:25.629Z,2.55
2018-09-11T15:57:54.632Z,2.30
2018-09-11T16:00:23.360Z,2.70
2018-09-11T16:02:52.258Z,2.60
2018-09-11T16:05:22.152Z,2.17
2018-09-11T16:07:50.961Z,2.63
2018-09-11T16:10:20.028Z,2.60
2018-09-11T16:12:48.962Z,2.58
2018-09-11T16:15:17.767Z,2.70
2018-09-11T16:17:46.556Z,2.40
2018-09-11T16:20:15.568Z,2.27
2018-09-11T16:22:44.457Z,2.80
2018-09-11T16:25:14.462Z,2.50
2018-09-11T16:27:43.582Z,3.00
2018-09-11T16:30:13.291Z,2.70
2018-09-11T16:32:42.107Z,2.57
2018-09-11T16:35:10.949Z,2.40
2018-09-11T16:37:40.387Z,2.53
2018-09-11T16:40:09.343Z,2.70
2018-09-11T16:42:38.036Z,2.60
2018-09-11T16:45:07.362Z,2.60
2018-09-11T16:47:36.197Z,2.97
2018-09-11T16:50:05.223Z,2.43
2018-09-11T16:52:34.234Z,2.60
2018-09-11T16:55:03.285Z,2.33
2018-09-11T16:57:32.422Z,2.70
2018-09-11T17:00:01.238Z,2.73
2018-09-11T17:02:30.271Z,2.73
2018-09-11T17:04:59.687Z,2.77
2018-09-11T17:07:28.524Z,2.47
2018-09-11T17:09:57.539Z,2.60
2018-09-11T17:12:26.474Z,2.87
2018-09-11T17:14:55.625Z,2.50
2018-09-11T17:17:24.672Z,3.10
2018-09-11T17:19:53.393Z,3.30
2018-09-11T17:22:22.546Z,3.02
2018-09-11T17:24:51.497Z,2.80
2018-09-11T17:27:20.549Z,2.50
2018-09-11T17:29:49.105Z,3.07
2018-09-11T17:32:17.957Z,3.57
2018-09-11T17:34:46.732Z,2.90
2018-09-11T17:37:15.543Z,3.05
2018-09-11T17:39:45.019Z,2.60
2018-09-11T17:42:13.772Z,3.00
2018-09-11T17:44:42.532Z,2.80
2018-09-11T17:47:11.529Z,3.13
2018-09-11T17:49:40.647Z,2.77
2018-09-11T17:52:10.049Z,2.90
2018-09-11T17:54:38.812Z,3.60
2018-09-11T17:57:07.702Z,3.03
2018-09-11T17:59:37.524Z,2.87
2018-09-11T18:02:06.163Z,2.70
2018-09-11T18:04:35.207Z,3.00
2018-09-11T18:07:03.864Z,2.83
2018-09-11T18:09:32.829Z,3.10
2018-09-11T18:12:01.814Z,3.07
2018-09-11T18:14:30.692Z,4.07
2018-09-11T18:16:59.559Z,3.20
2018-09-11T18:19:28.699Z,3.10
2018-09-11T18:21:58.472Z,3.60
2018-09-11T18:24:27.589Z,3.53
2018-09-11T18:26:56.559Z,3.70
2018-09-11T18:29:25.835Z,4.12
2018-09-11T18:31:54.554Z,3.52
2018-09-11T18:34:23.262Z,3.50
2018-09-11T18:36:52.189Z,3.58
2018-09-11T18:39:20.862Z,3.43
2018-09-11T18:41:49.587Z,3.87
2018-09-11T18:44:18.312Z,3.17
2018-09-11T18:46:47.083Z,3.52
2018-09-11T18:49:15.758Z,3.77
2018-09-11T18:51:44.535Z,3.63
2018-09-11T18:54:13.252Z,3.60
2018-09-11T18:56:41.934Z,5.40
2018-09-11T18:59:10.624Z,5.10
2018-09-11T19:01:39.400Z,4.87
2018-09-11T19:04:08.157Z,4.10
2018-09-11T19:06:36.922Z,4.20
2018-09-11T19:09:08.150Z,4.20
2018-09-11T19:11:36.921Z,4.27
2018-09-11T19:14:05.914Z,4.15
2018-09-11T19:16:34.621Z,4.60
2018-09-11T19:19:03.295Z,4.93
2018-09-11T19:21:31.991Z,4.63
2018-09-11T19:24:00.660Z,4.37
2018-09-11T19:26:29.333Z,4.40
2018-09-11T19:28:58.403Z,4.55
2018-09-11T19:31:27.163Z,4.40
2018-09-11T19:33:55.889Z,6.80
2018-09-11T19:36:24.632Z,5.90
2018-09-11T19:38:53.304Z,4.70
2018-09-11T19:41:22.090Z,5.03
2018-09-11T19:43:50.763Z,4.65
2018-09-11T19:46:19.444Z,4.37
2018-09-11T19:48:48.166Z,4.10
2018-09-11T19:51:16.893Z,4.07
2018-09-11T19:53:45.642Z,4.53
2018-09-11T19:56:14.432Z,4.20
2018-09-11T19:58:43.108Z,4.40
2018-09-11T20:01:11.876Z,4.53
2018-09-11T20:03:40.929Z,4.10
2018-09-11T20:06:09.665Z,5.00
2018-09-11T20:08:38.358Z,4.50
2018-09-11T20:11:07.064Z,4.47
2018-09-11T20:13:35.826Z,3.97
2018-09-11T20:16:04.552Z,4.37
2018-09-11T20:18:33.267Z,4.20
2018-09-11T20:21:01.958Z,3.93
2018-09-11T20:23:30.701Z,4.30
2018-09-11T20:25:59.408Z,4.10
2018-09-11T20:28:28.103Z,3.90
2018-09-11T20:30:56.786Z,4.47
2018-09-11T20:33:25.513Z,4.13
2018-09-11T20:35:54.228Z,4.40
2018-09-11T20:38:23.048Z,4.25
2018-09-11T20:40:51.778Z,4.10
2018-09-11T20:43:20.500Z,3.87
2018-09-11T20:45:49.242Z,3.87
2018-09-11T20:48:17.951Z,3.85
2018-09-11T20:50:46.699Z,3.77
2018-09-11T20:53:15.408Z,3.90
2018-09-11T20:55:44.063Z,3.90
2018-09-11T20:58:12.771Z,3.80
2018-09-11T21:00:41.509Z,3.60
2018-09-11T21:03:11.113Z,3.70
2018-09-11T21:05:39.856Z,4.07
2018-09-11T21:08:08.617Z,3.67
2018-09-11T21:10:37.334Z,3.97
2018-09-11T21:13:06.127Z,3.87
2018-09-11T21:15:34.821Z,4.20
2018-09-11T21:18:03.607Z,4.13
2018-09-11T21:20:32.354Z,3.40
2018-09-11T21:23:01.034Z,3.73
2018-09-11T21:25:29.723Z,3.53
2018-09-11T21:27:58.428Z,3.60
2018-09-11T21:30:27.091Z,3.50
2018-09-11T21:32:55.776Z,4.20
2018-09-11T21:35:24.481Z,4.05
2018-09-11T21:37:53.287Z,3.73
2018-09-11T21:40:21.987Z,3.58
2018-09-11T21:42:50.686Z,3.95
2018-09-11T21:45:19.393Z,4.50
2018-09-11T21:47:48.120Z,3.75
2018-09-11T21:50:16.859Z,3.80
2018-09-11T21:52:45.532Z,3.57
2018-09-11T21:55:14.260Z,3.90
2018-09-11T21:57:42.920Z,3.80
2018-09-11T22:00:13.065Z,3.73
2018-09-11T22:02:41.869Z,4.17
2018-09-11T22:05:11.607Z,4.27
2018-09-11T22:07:41.337Z,3.65
2018-09-11T22:10:11.212Z,4.27
2018-09-11T22:12:39.898Z,3.93
2018-09-11T22:15:09.611Z,3.70
2018-09-11T22:17:38.365Z,3.70
2018-09-11T22:20:07.504Z,3.57
2018-09-11T22:22:36.205Z,3.33
2018-09-11T22:25:05.316Z,3.80
2018-09-11T22:27:34.083Z,3.60
2018-09-11T22:30:02.716Z,3.45
2018-09-11T22:32:31.437Z,3.70
2018-09-11T22:35:00.127Z,3.83
2018-09-11T22:37:28.779Z,3.70
2018-09-11T22:39:57.458Z,3.87
2018-09-11T22:42:26.167Z,3.57
2018-09-11T22:44:54.823Z,3.92
2018-09-11T22:47:24.127Z,4.00
2018-09-11T22:49:52.780Z,3.83
2018-09-11T22:52:21.436Z,4.00
2018-09-11T22:54:50.086Z,4.00
2018-09-11T22:57:18.787Z,4.10
2018-09-11T22:59:47.447Z,4.05
2018-09-11T23:02:16.145Z,4.23
2018-09-11T23:04:44.821Z,4.53
2018-09-11T23:07:13.472Z,4.17
2018-09-11T23:09:42.190Z,4.10
2018-09-11T23:12:10.866Z,4.03
2018-09-11T23:14:39.541Z,3.90
2018-09-11T23:17:08.151Z,4.30
2018-09-11T23:19:36.793Z,4.40
2018-09-11T23:22:05.604Z,4.07
2018-09-11T23:24:34.261Z,4.63
2018-09-11T23:27:02.996Z,4.50
2018-09-11T23:29:31.612Z,4.40
2018-09-11T23:32:00.272Z,4.33
2018-09-11T23:34:28.944Z,4.75
2018-09-11T23:36:57.625Z,4.53
2018-09-11T23:39:26.349Z,4.90
2018-09-11T23:41:55.020Z,4.93
2018-09-11T23:44:23.815Z,5.47
2018-09-11T23:46:52.517Z,5.20
2018-09-11T23:49:21.296Z,5.60
2018-09-11T23:51:49.986Z,5.62
2018-09-11T23:54:18.779Z,5.15
2018-09-11T23:56:47.404Z,4.90
2018-09-11T23:59:16.056Z,5.92
